Time;durP1;ratioP1;P1;durP2;ratioP2;P2;SDS_P1;SDS_P2;PMS_P1;PMS_P2;Temp;Humidity;BMP_temperature;BMP_pressure;BME280_temperature;BME280_humidity;BME280_pressure;Samples;Min_cycle;Max_cycle;Signal;HPM_P1;HPM_P2
2023/12/06 00:00:24;;;;;;;1999.90;999.90;;;4.30;99.90;;;;;;5043365;28;20845;-74
2023/12/06 00:02:51;;;;;;;1999.90;999.90;;;4.30;99.90;;;;;;5051068;28;21076;-75
2023/12/06 00:05:18;;;;;;;1999.90;999.90;;;4.40;99.90;;;;;;5050726;28;20543;-74
2023/12/06 00:07:44;;;;;;;1999.90;999.90;;;4.20;99.90;;;;;;5048202;28;20874;-75
2023/12/06 00:10:11;;;;;;;1999.90;999.90;;;4.20;99.90;;;;;;5050366;28;20409;-75
2023/12/06 00:12:37;;;;;;;1999.90;999.90;;;4.20;99.90;;;;;;5050639;28;20461;-72
2023/12/06 00:15:04;;;;;;;1999.90;999.90;;;4.20;99.90;;;;;;5049397;28;20421;-75
2023/12/06 00:17:32;;;;;;;1999.90;999.90;;;4.20;99.90;;;;;;5050276;28;20479;-75
2023/12/06 00:19:59;;;;;;;1999.90;999.90;;;4.00;99.90;;;;;;5051152;28;20479;-73
2023/12/06 00:22:25;;;;;;;1999.90;999.90;;;4.10;99.90;;;;;;5050016;28;20467;-75
2023/12/06 00:24:53;;;;;;;1999.90;999.90;;;4.10;99.90;;;;;;5049751;28;20440;-75
2023/12/06 00:27:20;;;;;;;1999.90;999.90;;;4.20;99.90;;;;;;5050418;28;20413;-72
2023/12/06 00:29:47;;;;;;;1999.90;999.90;;;4.20;99.90;;;;;;5052288;28;20424;-75
2023/12/06 00:32:13;;;;;;;1999.90;999.90;;;4.00;99.90;;;;;;5052803;28;20764;-75
2023/12/06 00:34:41;;;;;;;1999.90;999.90;;;4.10;99.90;;;;;;5048710;28;20433;-76
2023/12/06 00:37:08;;;;;;;1999.90;999.90;;;4.10;99.90;;;;;;5050913;28;20437;-76
2023/12/06 00:39:34;;;;;;;1999.90;999.90;;;4.20;99.90;;;;;;5051737;28;20826;-75
2023/12/06 00:42:05;;;;;;;1999.90;999.90;;;4.20;99.90;;;;;;5052148;28;20416;-75
2023/12/06 00:44:31;;;;;;;1999.90;999.90;;;4.20;99.90;;;;;;5051229;28;20429;-76
2023/12/06 00:46:58;;;;;;;1999.90;999.90;;;4.10;99.90;;;;;;5051543;28;20683;-76
2023/12/06 00:49:24;;;;;;;1999.90;999.90;;;4.20;99.90;;;;;;5051685;28;20471;-74
2023/12/06 00:51:52;;;;;;;1999.90;999.90;;;4.20;99.90;;;;;;5051923;28;20417;-76
2023/12/06 00:54:19;;;;;;;1999.90;999.90;;;4.30;99.90;;;;;;5049567;28;20428;-76
2023/12/06 00:56:46;;;;;;;1999.90;999.90;;;4.20;99.90;;;;;;5051456;28;20418;-75
2023/12/06 00:59:12;;;;;;;1999.90;999.90;;;4.20;99.90;;;;;;5051669;28;20772;-75
2023/12/06 01:01:39;;;;;;;1999.90;999.90;;;4.10;99.90;;;;;;5051662;28;20430;-76
2023/12/06 01:04:05;;;;;;;1999.90;999.90;;;4.10;99.90;;;;;;5050451;28;20437;-74
2023/12/06 01:06:32;;;;;;;1999.90;999.90;;;4.10;99.90;;;;;;5051426;28;20467;-75
2023/12/06 01:09:00;;;;;;;1999.90;999.90;;;4.10;99.90;;;;;;5051413;28;20413;-75
2023/12/06 01:11:27;;;;;;;1999.90;999.90;;;4.10;99.90;;;;;;5051579;28;20409;-72
2023/12/06 01:13:53;;;;;;;1999.90;999.90;;;4.00;99.90;;;;;;5052024;28;20437;-74
2023/12/06 01:16:20;;;;;;;1999.90;999.90;;;3.80;99.90;;;;;;5052559;28;20409;-77
2023/12/06 01:18:47;;;;;;;1999.90;999.90;;;4.10;99.90;;;;;;5053539;28;20889;-71
2023/12/06 01:21:14;;;;;;;1999.90;999.90;;;4.20;99.90;;;;;;5051781;28;20506;-76
2023/12/06 01:23:40;;;;;;;1999.90;999.90;;;4.00;99.90;;;;;;5050702;28;20915;-75
2023/12/06 01:26:08;;;;;;;1999.90;999.90;;;4.00;99.90;;;;;;5049958;28;20416;-76
2023/12/06 01:28:35;;;;;;;1999.90;999.90;;;3.90;99.90;;;;;;5051472;28;20413;-75
2023/12/06 01:31:01;;;;;;;1999.90;999.90;;;3.80;99.90;;;;;;5051506;28;20824;-77
2023/12/06 01:33:28;;;;;;;1999.90;999.90;;;4.10;99.90;;;;;;5051837;28;20428;-76
2023/12/06 01:35:55;;;;;;;1999.90;999.90;;;4.20;99.90;;;;;;5048886;28;20456;-76
2023/12/06 01:38:21;;;;;;;1999.90;999.90;;;4.00;99.90;;;;;;5051705;28;20892;-76
2023/12/06 01:40:48;;;;;;;1999.90;999.90;;;3.80;99.90;;;;;;5051160;28;20475;-77
2023/12/06 01:43:16;;;;;;;1999.90;999.90;;;3.70;99.90;;;;;;5052080;28;20417;-76
2023/12/06 01:45:43;;;;;;;1999.90;999.90;;;3.70;99.90;;;;;;5045573;28;20436;-76
2023/12/06 01:48:10;;;;;;;1999.90;999.90;;;3.70;99.90;;;;;;5047473;28;20951;-76
2023/12/06 01:50:39;;;;;;;1999.90;999.90;;;3.80;99.90;;;;;;5045455;28;20410;-76
2023/12/06 01:53:06;;;;;;;1999.90;999.90;;;3.80;99.90;;;;;;5046064;28;21096;-77
2023/12/06 01:55:33;;;;;;;1999.90;999.90;;;3.90;99.90;;;;;;5049623;28;20915;-74
2023/12/06 01:58:00;;;;;;;1999.90;999.90;;;3.80;99.90;;;;;;5050729;28;20899;-77
2023/12/06 02:00:28;;;;;;;1999.90;999.90;;;4.10;99.90;;;;;;5052742;28;20437;-75
2023/12/06 02:02:55;;;;;;;1999.90;999.90;;;4.40;99.90;;;;;;5053771;28;20431;-75
2023/12/06 02:05:22;;;;;;;1999.90;999.90;;;4.40;99.90;;;;;;5049227;28;20876;-77
2023/12/06 02:07:51;;;;;;;1999.90;999.90;;;4.30;99.90;;;;;;5052375;28;20409;-77
2023/12/06 02:10:17;;;;;;;1999.90;999.90;;;4.40;99.90;;;;;;5052702;28;20417;-77
2023/12/06 02:12:44;;;;;;;1999.90;999.90;;;4.20;99.90;;;;;;5052646;28;20471;-77
2023/12/06 02:15:12;;;;;;;1999.90;999.90;;;4.00;99.90;;;;;;5051743;28;20819;-77
2023/12/06 02:17:41;;;;;;;1999.90;999.90;;;3.70;99.90;;;;;;5052011;28;20492;-75
2023/12/06 02:20:09;;;;;;;1999.90;999.90;;;3.90;99.90;;;;;;5051413;28;20433;-75
2023/12/06 02:22:36;;;;;;;1999.90;999.90;;;3.90;99.90;;;;;;5051848;28;20855;-77
2023/12/06 02:25:05;;;;;;;1999.90;999.90;;;3.70;99.90;;;;;;5050564;28;20429;-76
2023/12/06 02:27:33;;;;;;;1999.90;999.90;;;3.80;99.90;;;;;;5052120;28;20421;-77
2023/12/06 02:30:00;;;;;;;1999.90;999.90;;;4.00;99.90;;;;;;5050999;28;20484;-76
2023/12/06 02:32:26;;;;;;;1999.90;999.90;;;3.90;99.90;;;;;;5051346;28;20413;-76
2023/12/06 02:34:55;;;;;;;1999.90;999.90;;;3.90;99.90;;;;;;5049609;28;20437;-74
2023/12/06 02:37:23;;;;;;;1999.90;999.90;;;4.00;99.90;;;;;;5050985;28;20409;-76
2023/12/06 02:39:52;;;;;;;1999.90;999.90;;;3.90;99.90;;;;;;5050837;28;20491;-76
2023/12/06 02:42:19;;;;;;;1999.90;999.90;;;4.00;99.90;;;;;;5047302;28;20428;-76
2023/12/06 02:44:47;;;;;;;1999.90;999.90;;;4.10;99.90;;;;;;5049935;28;20810;-77
2023/12/06 02:47:14;;;;;;;1999.90;999.90;;;4.20;99.90;;;;;;5050516;28;20421;-75
2023/12/06 02:49:41;;;;;;;1999.90;999.90;;;4.10;99.90;;;;;;5051008;28;20467;-76
2023/12/06 02:52:07;;;;;;;1999.90;999.90;;;4.00;99.90;;;;;;5050779;28;20409;-76
2023/12/06 02:54:34;;;;;;;1999.90;999.90;;;4.10;99.90;;;;;;5050092;28;20440;-76
2023/12/06 02:57:01;;;;;;;1999.90;999.90;;;4.10;99.90;;;;;;5050221;28;20954;-76
2023/12/06 02:59:27;;;;;;;1999.90;999.90;;;4.00;99.90;;;;;;5050923;28;20413;-75
2023/12/06 03:01:55;;;;;;;1999.90;999.90;;;3.90;99.90;;;;;;5046358;28;20502;-76
2023/12/06 03:04:22;;;;;;;1999.90;999.90;;;3.80;99.90;;;;;;5050445;28;20417;-76
2023/12/06 03:06:49;;;;;;;1999.90;999.90;;;3.90;99.90;;;;;;5050143;28;20413;-76
2023/12/06 03:09:15;;;;;;;1999.90;999.90;;;4.10;99.90;;;;;;5051042;28;20466;-75
2023/12/06 03:11:42;;;;;;;1999.90;999.90;;;4.20;99.90;;;;;;5050115;28;20429;-76
2023/12/06 03:14:09;;;;;;;1999.90;999.90;;;4.20;99.90;;;;;;5050889;28;20409;-77
2023/12/06 03:16:35;;;;;;;1999.90;999.90;;;4.10;99.90;;;;;;5051457;28;20417;-76
2023/12/06 03:19:03;;;;;;;1999.90;999.90;;;4.50;99.90;;;;;;5050614;28;20463;-76
2023/12/06 03:21:30;;;;;;;1999.90;999.90;;;4.70;99.90;;;;;;5049734;28;21168;-75
2023/12/06 03:23:57;;;;;;;1999.90;999.90;;;4.70;99.90;;;;;;5050662;28;20977;-77
2023/12/06 03:26:24;;;;;;;1999.90;999.90;;;4.30;99.90;;;;;;5051787;28;20421;-76
2023/12/06 03:28:50;;;;;;;1999.90;999.90;;;4.20;99.90;;;;;;5051226;28;20409;-75
2023/12/06 03:31:17;;;;;;;1999.90;999.90;;;4.00;99.90;;;;;;5050452;28;20433;-75
2023/12/06 03:33:44;;;;;;;1999.90;999.90;;;4.00;99.90;;;;;;5051065;28;20424;-76
2023/12/06 03:36:12;;;;;;;1999.90;999.90;;;3.90;99.90;;;;;;5050688;28;20436;-75
2023/12/06 03:38:39;;;;;;;1999.90;999.90;;;4.00;99.90;;;;;;5050798;28;20417;-73
2023/12/06 03:41:06;;;;;;;1999.90;999.90;;;4.30;99.90;;;;;;5050339;28;20424;-74
2023/12/06 03:43:33;;;;;;;1999.90;999.90;;;4.30;99.90;;;;;;5050771;28;20413;-77
2023/12/06 03:45:59;;;;;;;1999.90;999.90;;;4.20;99.90;;;;;;5058560;28;20498;-76
2023/12/06 03:48:26;;;;;;;1999.90;999.90;;;4.40;99.90;;;;;;5060280;28;20471;-76
2023/12/06 03:50:53;;;;;;;1999.90;999.90;;;4.40;99.90;;;;;;5059374;28;20433;-76
2023/12/06 03:53:21;;;;;;;1999.90;999.90;;;4.40;99.90;;;;;;5055170;28;20483;-77
2023/12/06 03:55:46;;;;;;;1999.90;999.90;;;4.50;99.90;;;;;;5057461;28;20414;-76
2023/12/06 03:58:13;;;;;;;1999.90;999.90;;;4.50;99.90;;;;;;5055110;28;20972;-75
2023/12/06 04:00:39;;;;;;;1999.90;999.90;;;4.30;99.90;;;;;;5052800;28;20973;-75
2023/12/06 04:03:07;;;;;;;1999.90;999.90;;;4.30;99.90;;;;;;5053186;28;20436;-74
2023/12/06 04:05:34;;;;;;;1999.90;999.90;;;4.30;99.90;;;;;;5053759;28;20593;-77
2023/12/06 04:08:01;;;;;;;1999.90;999.90;;;4.30;99.90;;;;;;5054017;28;20491;-77
2023/12/06 04:10:28;;;;;;;1999.90;999.90;;;4.20;99.90;;;;;;5054232;28;20443;-76
2023/12/06 04:12:55;;;;;;;1999.90;999.90;;;4.20;99.90;;;;;;5054442;28;20439;-77
2023/12/06 04:15:22;;;;;;;1999.90;999.90;;;4.30;99.90;;;;;;5053655;28;20414;-78
2023/12/06 04:17:48;;;;;;;1999.90;999.90;;;4.20;99.90;;;;;;5053714;28;20471;-77
2023/12/06 04:20:15;;;;;;;1999.90;999.90;;;4.20;99.90;;;;;;5054243;28;20467;-77
2023/12/06 04:22:42;;;;;;;1999.90;999.90;;;4.10;99.90;;;;;;5053098;28;20475;-77
2023/12/06 04:25:09;;;;;;;1999.90;999.90;;;4.30;99.90;;;;;;5053911;28;20413;-77
2023/12/06 04:27:37;;;;;;;1999.90;999.90;;;4.10;99.90;;;;;;5053883;28;20891;-76
2023/12/06 04:30:05;;;;;;;1999.90;999.90;;;3.90;99.90;;;;;;5051116;28;20826;-76
2023/12/06 04:32:31;;;;;;;1999.90;999.90;;;3.90;99.90;;;;;;5050792;28;20930;-76
2023/12/06 04:34:58;;;;;;;1999.90;999.90;;;4.00;99.90;;;;;;5053280;28;20413;-77
2023/12/06 04:37:25;;;;;;;1999.90;999.90;;;4.00;99.90;;;;;;5053058;28;20413;-76
2023/12/06 04:39:52;;;;;;;1999.90;999.90;;;4.00;99.90;;;;;;5053272;28;20413;-77
2023/12/06 04:42:19;;;;;;;1999.90;999.90;;;4.20;99.90;;;;;;5047024;28;20988;-77
2023/12/06 04:44:47;;;;;;;1999.90;999.90;;;4.10;99.90;;;;;;5053352;28;20420;-77
2023/12/06 04:47:14;;;;;;;1999.90;999.90;;;4.00;99.90;;;;;;5053805;28;20463;-77
2023/12/06 04:49:40;;;;;;;1999.90;999.90;;;3.90;99.90;;;;;;5053167;28;20417;-77
2023/12/06 04:52:07;;;;;;;1999.90;999.90;;;4.00;99.90;;;;;;5052221;28;21062;-74
2023/12/06 04:54:33;;;;;;;1999.90;999.90;;;4.20;99.90;;;;;;5051627;28;20413;-75
2023/12/06 04:57:00;;;;;;;1999.90;999.90;;;4.20;99.90;;;;;;5053257;28;20464;-75
2023/12/06 04:59:27;;;;;;;1999.90;999.90;;;4.00;99.90;;;;;;5052621;28;20410;-75
2023/12/06 05:01:55;;;;;;;1999.90;999.90;;;4.10;99.90;;;;;;5052382;28;20425;-76
2023/12/06 05:04:22;;;;;;;1999.90;999.90;;;4.10;99.90;;;;;;5053544;28;20413;-76
2023/12/06 05:06:49;;;;;;;1999.90;999.90;;;4.10;99.90;;;;;;5050856;28;20425;-77
2023/12/06 05:09:16;;;;;;;1999.90;999.90;;;4.20;99.90;;;;;;5053257;28;20461;-75
2023/12/06 05:11:42;;;;;;;1999.90;999.90;;;4.30;99.90;;;;;;5053777;28;20444;-76
2023/12/06 05:14:09;;;;;;;1999.90;999.90;;;4.40;99.90;;;;;;5054026;28;20417;-75
2023/12/06 05:16:36;;;;;;;1999.90;999.90;;;4.30;99.90;;;;;;5053491;28;20421;-74
2023/12/06 05:19:04;;;;;;;1999.90;999.90;;;4.10;99.90;;;;;;5052037;28;20433;-76
2023/12/06 05:21:33;;;;;;;1999.90;999.90;;;4.10;99.90;;;;;;5054308;28;21313;-76
2023/12/06 05:23:59;;;;;;;1999.90;999.90;;;4.20;99.90;;;;;;5054244;28;20413;-76
2023/12/06 05:26:26;;;;;;;1999.90;999.90;;;4.20;99.90;;;;;;5056552;28;20425;-76
2023/12/06 05:28:54;;;;;;;1999.90;999.90;;;4.10;99.90;;;;;;5057461;28;20421;-75
2023/12/06 05:31:20;;;;;;;1999.90;999.90;;;4.10;99.90;;;;;;5052681;28;20421;-75
2023/12/06 05:33:48;;;;;;;1999.90;999.90;;;4.20;99.90;;;;;;5050818;28;20980;-74
2023/12/06 05:36:16;;;;;;;1999.90;999.90;;;4.10;99.90;;;;;;5052064;28;20484;-74
2023/12/06 05:38:43;;;;;;;1999.90;999.90;;;4.10;99.90;;;;;;5052289;28;20505;-75
2023/12/06 05:41:10;;;;;;;1999.90;999.90;;;4.10;99.90;;;;;;5052098;28;20421;-76
2023/12/06 05:43:37;;;;;;;1999.90;999.90;;;4.10;99.90;;;;;;5051493;28;20527;-75
2023/12/06 05:46:04;;;;;;;1999.90;999.90;;;3.90;99.90;;;;;;5052310;28;20410;-74
2023/12/06 05:48:31;;;;;;;1999.90;999.90;;;3.90;99.90;;;;;;5052689;28;20496;-74
2023/12/06 05:50:58;;;;;;;1999.90;999.90;;;3.80;99.90;;;;;;5052407;28;20471;-75
2023/12/06 05:53:26;;;;;;;1999.90;999.90;;;3.80;99.90;;;;;;5051317;28;20433;-73
2023/12/06 05:55:52;;;;;;;1999.90;999.90;;;3.80;99.90;;;;;;5052658;28;20805;-75
2023/12/06 05:58:19;;;;;;;1999.90;999.90;;;4.00;99.90;;;;;;5049591;28;20459;-75
2023/12/06 06:00:46;;;;;;;1999.90;999.90;;;4.00;99.90;;;;;;5052696;28;20416;-74
2023/12/06 06:03:12;;;;;;;1999.90;999.90;;;4.10;99.90;;;;;;5051070;28;20429;-75
2023/12/06 06:05:39;;;;;;;1999.90;999.90;;;4.00;99.90;;;;;;5051269;28;20414;-75
2023/12/06 06:08:06;;;;;;;1999.90;999.90;;;3.80;99.90;;;;;;5052052;28;20409;-72
2023/12/06 06:10:34;;;;;;;1999.90;999.90;;;3.90;99.90;;;;;;5051694;28;20417;-75
2023/12/06 06:13:00;;;;;;;1999.90;999.90;;;3.90;99.90;;;;;;5052192;28;20984;-74
2023/12/06 06:15:27;;;;;;;1999.90;999.90;;;3.90;99.90;;;;;;5052279;28;20417;-75
2023/12/06 06:17:54;;;;;;;1999.90;999.90;;;3.90;99.90;;;;;;5052211;28;20473;-75
2023/12/06 06:20:20;;;;;;;1999.90;999.90;;;3.80;99.90;;;;;;5051854;28;20416;-75
2023/12/06 06:22:47;;;;;;;1999.90;999.90;;;3.80;99.90;;;;;;5050082;28;20428;-75
2023/12/06 06:25:13;;;;;;;1999.90;999.90;;;3.80;99.90;;;;;;5050793;28;20417;-75
2023/12/06 06:27:41;;;;;;;1999.90;999.90;;;3.80;99.90;;;;;;5051516;28;20463;-74
2023/12/06 06:30:10;;;;;;;1999.90;999.90;;;3.80;99.90;;;;;;5051915;28;20417;-74
2023/12/06 06:32:37;;;;;;;1999.90;999.90;;;3.80;99.90;;;;;;5049898;28;20486;-74
2023/12/06 06:35:04;;;;;;;1999.90;999.90;;;3.80;99.90;;;;;;5050688;28;20459;-75
2023/12/06 06:37:30;;;;;;;1999.90;999.90;;;3.90;99.90;;;;;;5050460;28;20417;-74
2023/12/06 06:39:57;;;;;;;1999.90;999.90;;;3.90;99.90;;;;;;5049908;28;20471;-71
2023/12/06 06:42:24;;;;;;;1999.90;999.90;;;3.70;99.90;;;;;;5050673;28;20425;-76
2023/12/06 06:44:55;;;;;;;1999.90;999.90;;;3.60;99.90;;;;;;5050992;28;20417;-75
2023/12/06 06:47:22;;;;;;;1999.90;999.90;;;3.80;99.90;;;;;;5050078;28;20441;-75
2023/12/06 06:49:48;;;;;;;1999.90;999.90;;;3.70;99.90;;;;;;5050607;28;20413;-72
2023/12/06 06:52:15;;;;;;;1999.90;999.90;;;3.80;99.90;;;;;;5052763;28;20401;-74
2023/12/06 06:54:42;;;;;;;1999.90;999.90;;;3.70;99.90;;;;;;5051882;28;20421;-77
2023/12/06 06:57:09;;;;;;;1999.90;999.90;;;3.60;99.90;;;;;;5047712;28;20440;-75
2023/12/06 06:59:35;;;;;;;1999.90;999.90;;;3.70;99.90;;;;;;5050695;28;20440;-76
2023/12/06 07:02:04;;;;;;;1999.90;999.90;;;3.70;99.90;;;;;;5047242;28;20453;-73
2023/12/06 07:04:31;;;;;;;1999.90;999.90;;;3.60;99.90;;;;;;5047852;28;20793;-76
2023/12/06 07:06:58;;;;;;;1999.90;999.90;;;3.70;99.90;;;;;;5048720;28;20463;-75
2023/12/06 07:09:24;;;;;;;1999.90;999.90;;;3.70;99.90;;;;;;5051137;28;20413;-75
2023/12/06 07:11:51;;;;;;;1999.90;999.90;;;3.60;99.90;;;;;;5052061;28;20452;-74
2023/12/06 07:14:18;;;;;;;1999.90;999.90;;;3.60;99.90;;;;;;5052653;28;20512;-75
2023/12/06 07:16:45;;;;;;;1999.90;999.90;;;3.50;99.90;;;;;;5048183;28;20483;-75
2023/12/06 07:19:13;;;;;;;1999.90;999.90;;;3.60;99.90;;;;;;5054201;28;20947;-75
2023/12/06 07:21:40;;;;;;;1999.90;999.90;;;3.60;99.90;;;;;;5055978;28;20451;-76
2023/12/06 07:24:07;;;;;;;1999.90;999.90;;;3.60;99.90;;;;;;5047568;28;20461;-76
2023/12/06 07:26:33;;;;;;;1999.90;999.90;;;3.70;99.90;;;;;;5053551;28;20512;-77
2023/12/06 07:29:00;;;;;;;1999.90;999.90;;;3.70;99.90;;;;;;5056012;28;20425;-75
2023/12/06 07:31:27;;;;;;;1999.90;999.90;;;3.70;99.90;;;;;;5056055;28;20417;-77
2023/12/06 07:33:53;;;;;;;1999.90;999.90;;;3.60;99.90;;;;;;5055406;28;20420;-77
2023/12/06 07:36:22;;;;;;;1999.90;999.90;;;3.50;99.90;;;;;;5055044;28;20479;-76
2023/12/06 07:38:48;;;;;;;1999.90;999.90;;;3.60;99.90;;;;;;5059906;28;20444;-75
2023/12/06 07:41:15;;;;;;;1999.90;999.90;;;3.60;99.90;;;;;;5059819;28;20416;-76
2023/12/06 07:43:42;;;;;;;1999.90;999.90;;;3.60;99.90;;;;;;5058124;28;20524;-77
2023/12/06 07:46:09;;;;;;;1999.90;999.90;;;3.60;99.90;;;;;;5051890;28;20428;-76
2023/12/06 07:48:35;;;;;;;1999.90;999.90;;;3.60;99.90;;;;;;5050800;28;20430;-76
2023/12/06 07:51:02;;;;;;;1999.90;999.90;;;3.60;99.90;;;;;;5056169;28;20410;-75
2023/12/06 07:53:30;;;;;;;1999.90;999.90;;;3.50;99.90;;;;;;5055495;28;20455;-77
2023/12/06 07:55:58;;;;;;;1999.90;999.90;;;3.40;99.90;;;;;;5052192;28;20417;-76
2023/12/06 07:58:25;;;;;;;1999.90;999.90;;;3.50;99.90;;;;;;5054310;28;20445;-76
2023/12/06 08:00:52;;;;;;;1999.90;999.90;;;3.50;99.90;;;;;;5052252;28;20445;-76
2023/12/06 08:03:21;;;;;;;1999.90;999.90;;;3.50;99.90;;;;;;5054781;28;20512;-73
2023/12/06 08:05:48;;;;;;;1999.90;999.90;;;3.50;99.90;;;;;;5054508;28;20496;-75
2023/12/06 08:08:15;;;;;;;1999.90;999.90;;;3.60;99.90;;;;;;5054178;28;20508;-76
2023/12/06 08:10:43;;;;;;;1999.90;999.90;;;3.70;99.90;;;;;;5054368;28;20409;-76
2023/12/06 08:13:10;;;;;;;1999.90;999.90;;;3.80;99.90;;;;;;5049042;28;20429;-77
2023/12/06 08:15:37;;;;;;;1999.90;999.90;;;3.70;99.90;;;;;;5054357;28;20887;-76
2023/12/06 08:18:03;;;;;;;1999.90;999.90;;;3.70;99.90;;;;;;5053458;28;20435;-75
2023/12/06 08:20:30;;;;;;;1999.90;999.90;;;3.70;99.90;;;;;;5055787;28;20500;-77
2023/12/06 08:22:57;;;;;;;1999.90;999.90;;;3.70;99.90;;;;;;5051786;28;20425;-76
2023/12/06 08:25:24;;;;;;;1999.90;999.90;;;3.70;99.90;;;;;;5053242;28;20784;-72
2023/12/06 08:27:52;;;;;;;1999.90;999.90;;;3.60;99.90;;;;;;5053683;28;20417;-77
2023/12/06 08:30:21;;;;;;;1999.90;999.90;;;3.70;99.90;;;;;;5053841;28;20429;-76
2023/12/06 08:32:48;;;;;;;1999.90;999.90;;;3.70;99.90;;;;;;5052378;28;20433;-75
2023/12/06 08:35:15;;;;;;;1999.90;999.90;;;3.80;99.90;;;;;;5053888;28;20417;-75
2023/12/06 08:37:41;;;;;;;1999.90;999.90;;;3.80;99.90;;;;;;5053933;28;20413;-71
2023/12/06 08:40:10;;;;;;;1999.90;999.90;;;3.80;99.90;;;;;;5053923;28;20420;-75
2023/12/06 08:42:36;;;;;;;1999.90;999.90;;;3.60;99.90;;;;;;5053175;28;20434;-74
2023/12/06 08:45:06;;;;;;;1999.90;999.90;;;3.60;99.90;;;;;;5052779;28;20421;-74
2023/12/06 08:47:33;;;;;;;1999.90;999.90;;;3.60;99.90;;;;;;5049181;28;20413;-77
2023/12/06 08:50:00;;;;;;;1999.90;999.90;;;3.80;99.90;;;;;;5054001;28;20499;-77
2023/12/06 08:52:26;;;;;;;1999.90;999.90;;;3.70;99.90;;;;;;5054018;28;20422;-74
2023/12/06 08:54:53;;;;;;;1999.90;999.90;;;3.90;99.90;;;;;;5050156;28;20420;-77
2023/12/06 08:57:20;;;;;;;1999.90;999.90;;;3.90;99.90;;;;;;5049148;28;20447;-76
2023/12/06 08:59:46;;;;;;;1999.90;999.90;;;3.90;99.90;;;;;;5052102;28;20517;-77
2023/12/06 09:02:16;;;;;;;1999.90;999.90;;;3.80;99.90;;;;;;5049762;28;20495;-77
2023/12/06 09:04:42;;;;;;;1999.90;999.90;;;3.70;99.90;;;;;;5051606;28;20520;-75
2023/12/06 09:07:09;;;;;;;1999.90;999.90;;;3.80;99.90;;;;;;5053406;28;21067;-76
2023/12/06 09:09:36;;;;;;;1999.90;999.90;;;3.80;99.90;;;;;;5052597;28;20459;-78
2023/12/06 09:12:02;;;;;;;1999.90;999.90;;;3.80;99.90;;;;;;5051690;28;20781;-76
2023/12/06 09:14:29;;;;;;;1999.90;999.90;;;3.80;99.90;;;;;;5054149;28;20444;-76
2023/12/06 09:16:56;;;;;;;1999.90;999.90;;;3.80;99.90;;;;;;5054052;28;20425;-75
2023/12/06 09:19:24;;;;;;;1999.90;999.90;;;3.70;99.90;;;;;;5052822;28;20420;-75
2023/12/06 09:21:51;;;;;;;1999.90;999.90;;;3.70;99.90;;;;;;5050699;28;20836;-77
2023/12/06 09:24:17;;;;;;;1999.90;999.90;;;3.70;99.90;;;;;;5053024;28;20426;-75
2023/12/06 09:26:44;;;;;;;1999.90;999.90;;;3.80;99.90;;;;;;5054329;28;20478;-77
2023/12/06 09:29:12;;;;;;;1999.90;999.90;;;3.90;99.90;;;;;;5053866;28;20413;-74
2023/12/06 09:31:39;;;;;;;1999.90;999.90;;;3.80;99.90;;;;;;5053438;28;20972;-76
2023/12/06 09:34:06;;;;;;;1999.90;999.90;;;3.70;99.90;;;;;;5054828;28;20932;-77
2023/12/06 09:36:34;;;;;;;1999.90;999.90;;;3.60;99.90;;;;;;5056779;28;20497;-76
2023/12/06 09:39:01;;;;;;;1999.90;999.90;;;3.80;99.90;;;;;;5057191;28;20410;-76
2023/12/06 09:41:29;;;;;;;1999.90;999.90;;;3.80;99.90;;;;;;5055194;28;20413;-75
2023/12/06 09:43:56;;;;;;;1999.90;999.90;;;3.80;99.90;;;;;;5056590;28;20429;-76
2023/12/06 09:46:24;;;;;;;1999.90;999.90;;;3.90;99.90;;;;;;5056826;28;20417;-76
2023/12/06 09:48:52;;;;;;;1999.90;999.90;;;3.90;99.90;;;;;;5052761;28;20475;-77
2023/12/06 09:51:19;;;;;;;1999.90;999.90;;;3.80;99.90;;;;;;5056574;28;20421;-76
2023/12/06 09:53:47;;;;;;;1999.90;999.90;;;3.90;99.90;;;;;;5054921;28;20425;-78
2023/12/06 09:56:15;;;;;;;1999.90;999.90;;;4.00;99.90;;;;;;5054552;28;20409;-75
2023/12/06 09:58:41;;;;;;;1999.90;999.90;;;3.90;99.90;;;;;;5052018;28;20891;-75
2023/12/06 10:01:10;;;;;;;1999.90;999.90;;;3.90;99.90;;;;;;5052316;28;20788;-77
2023/12/06 10:03:38;;;;;;;1999.90;999.90;;;4.00;99.90;;;;;;5051441;28;20460;-75
2023/12/06 10:06:05;;;;;;;1999.90;999.90;;;4.10;99.90;;;;;;5053341;28;20413;-75
2023/12/06 10:08:33;;;;;;;1999.90;999.90;;;4.20;99.90;;;;;;5047103;28;20791;-75
2023/12/06 10:11:03;;;;;;;1999.90;999.90;;;4.20;99.90;;;;;;5052309;28;20433;-74
2023/12/06 10:13:34;;;;;;;1999.90;999.90;;;4.40;99.90;;;;;;5051454;28;20482;-74
2023/12/06 10:16:01;;;;;;;1999.90;999.90;;;4.20;99.90;;;;;;5052475;28;20866;-76
2023/12/06 10:18:27;;;;;;;1999.90;999.90;;;4.10;99.90;;;;;;5053130;28;20410;-75
2023/12/06 10:20:55;;;;;;;1999.90;999.90;;;4.20;99.90;;;;;;5048993;28;20413;-75
2023/12/06 10:23:22;;;;;;;1999.90;999.90;;;4.10;99.90;;;;;;5045723;28;20425;-73
2023/12/06 10:25:50;;;;;;;1999.90;999.90;;;4.10;99.90;;;;;;5051627;28;20433;-76
2023/12/06 10:28:18;;;;;;;1999.90;999.90;;;4.20;99.90;;;;;;5052244;28;20795;-75
2023/12/06 10:30:45;;;;;;;1999.90;999.90;;;4.20;99.90;;;;;;5051774;28;20496;-72
2023/12/06 10:33:13;;;;;;;1999.90;999.90;;;4.20;99.90;;;;;;5047475;28;20433;-76
2023/12/06 10:35:42;;;;;;;1999.90;999.90;;;4.20;99.90;;;;;;5051088;28;20413;-75
2023/12/06 10:38:10;;;;;;;1999.90;999.90;;;4.20;99.90;;;;;;5050908;28;20415;-76
2023/12/06 10:40:36;;;;;;;1999.90;999.90;;;4.20;99.90;;;;;;5044435;28;20828;-76
2023/12/06 10:43:07;;;;;;;1999.90;999.90;;;4.30;99.90;;;;;;5046750;28;20443;-72
2023/12/06 10:45:37;;;;;;;1999.90;999.90;;;4.10;99.90;;;;;;5052451;28;20429;-75
2023/12/06 10:48:06;;;;;;;1999.90;999.90;;;4.10;99.90;;;;;;5045818;28;20411;-74
2023/12/06 10:50:34;;;;;;;1999.90;999.90;;;4.10;99.90;;;;;;5049990;28;20405;-75
2023/12/06 10:53:01;;;;;;;1999.90;999.90;;;4.10;99.90;;;;;;5055162;28;20424;-77
2023/12/06 10:55:29;;;;;;;1999.90;999.90;;;4.20;99.90;;;;;;5056748;28;20492;-76
2023/12/06 10:57:58;;;;;;;1999.90;999.90;;;4.20;99.90;;;;;;5049456;28;20516;-78
2023/12/06 11:00:26;;;;;;;1999.90;999.90;;;4.30;99.90;;;;;;5057578;28;20417;-78
2023/12/06 11:02:54;;;;;;;1999.90;999.90;;;4.20;99.90;;;;;;5050279;28;20842;-76
2023/12/06 11:05:24;;;;;;;1999.90;999.90;;;4.30;99.90;;;;;;5058726;28;20422;-77
2023/12/06 11:08:07;;;;;;;1999.90;999.90;;;4.20;99.90;;;;;;5056394;28;20432;-75
2023/12/06 11:10:46;;;;;;;1999.90;999.90;;;4.20;99.90;;;;;;5053824;28;20429;-78
2023/12/06 11:13:23;;;;;;;1999.90;999.90;;;4.20;99.90;;;;;;5055801;28;20424;-72
2023/12/06 11:16:00;;;;;;;1999.90;999.90;;;4.20;99.90;;;;;;5052158;28;20445;-75
2023/12/06 11:18:35;;;;;;;1999.90;999.90;;;4.10;99.90;;;;;;5053963;28;20436;-77
2023/12/06 11:21:04;;;;;;;1999.90;999.90;;;3.90;99.90;;;;;;5052542;28;20431;-76
2023/12/06 11:23:31;;;;;;;1999.90;999.90;;;3.90;99.90;;;;;;5054439;28;20494;-74
2023/12/06 11:25:58;;;;;;;1999.90;999.90;;;3.90;99.90;;;;;;5046210;28;20433;-74
2023/12/06 11:28:25;;;;;;;1999.90;999.90;;;3.90;99.90;;;;;;5051528;28;20413;-76
2023/12/06 11:30:55;;;;;;;1999.90;999.90;;;3.90;99.90;;;;;;5050404;28;20416;-75
2023/12/06 11:33:22;;;;;;;1999.90;999.90;;;3.90;99.90;;;;;;5046517;28;20488;-75
2023/12/06 11:35:54;;;;;;;1999.90;999.90;;;3.80;99.90;;;;;;5056499;28;20417;-77
2023/12/06 11:38:31;;;;;;;1999.90;999.90;;;3.80;99.90;;;;;;5052869;28;20428;-74
2023/12/06 11:40:58;;;;;;;1999.90;999.90;;;3.80;99.90;;;;;;5047868;28;20421;-75
2023/12/06 11:43:32;;;;;;;1999.90;999.90;;;3.80;99.90;;;;;;5056132;28;20456;-76
2023/12/06 11:46:03;;;;;;;1999.90;999.90;;;3.90;99.90;;;;;;5044403;28;20481;-76
2023/12/06 11:48:30;;;;;;;1999.90;999.90;;;3.80;99.90;;;;;;5050777;28;20428;-76
2023/12/06 11:51:01;;;;;;;1999.90;999.90;;;3.80;99.90;;;;;;5051239;28;20471;-76
2023/12/06 11:53:28;;;;;;;1999.90;999.90;;;3.80;99.90;;;;;;5052435;28;20413;-74
2023/12/06 11:55:55;;;;;;;1999.90;999.90;;;3.80;99.90;;;;;;5048649;28;20437;-75
2023/12/06 11:58:22;;;;;;;1999.90;999.90;;;3.80;99.90;;;;;;5050645;28;20405;-75
2023/12/06 12:00:51;;;;;;;1999.90;999.90;;;3.70;99.90;;;;;;5044843;28;20417;-77
2023/12/06 12:03:18;;;;;;;1999.90;999.90;;;3.70;99.90;;;;;;5043070;28;20956;-76
2023/12/06 12:05:46;;;;;;;1999.90;999.90;;;3.40;99.90;;;;;;5049491;28;20425;-76
2023/12/06 12:08:14;;;;;;;1999.90;999.90;;;3.70;99.90;;;;;;5049449;28;20425;-76